Погода Сладкая Балкана 2 недели

Ростовская область, Россия

22 мая-04 июня
  • 22мая
    Сегодня
    +12°
    +27°
    Ясно и безоблачно
    ВремяПогодаТемператураВлажностьДавлениеВетер, м/сВероятность осадков
    00:00Ясно и безоблачно+15°C60 %753 мм2.3 м/с2 %
    03:00Ясно и безоблачно+13°C61 %753 мм2.7 м/с2 %
    06:00Ясно и безоблачно+13°C66 %753 мм2.7 м/с2 %
    09:00Ясно и безоблачно+21°C48 %753 мм3.2 м/с2 %
    12:00Ясно и безоблачно+25°C28 %753 мм4.7 м/с2 %
    15:00Ясно и безоблачно+26°C24 %752 мм5.0 м/с2 %
    18:00Ясно и безоблачно+25°C31 %751 мм3.5 м/с2 %
    21:00Ясно и безоблачно+18°C41 %751 мм2.7 м/с2 %
  • 23мая
    Четверг
    +15°
    +26°
    Ясно и безоблачно
    ВремяПогодаТемператураВлажностьДавлениеВетер, м/сВероятность осадков
    00:00Ясно и безоблачно+15°C51 %751 мм2.9 м/с2 %
    03:00Ясно и безоблачно+13°C54 %751 мм3.0 м/с2 %
    06:00Ясно и безоблачно+14°C58 %751 мм3.3 м/с2 %
    09:00Ясно и безоблачно+20°C48 %751 мм3.9 м/с2 %
    12:00Ясно и безоблачно+25°C31 %751 мм5.5 м/с2 %
    15:00Ясно и безоблачно+26°C24 %750 мм6.1 м/с2 %
    18:00Ясно и безоблачно+25°C28 %750 мм4.2 м/с2 %
    21:00Ясно и безоблачно+18°C42 %750 мм2.6 м/с2 %
  • 24мая
    Пятница
    +12°
    +24°
    Ясно и безоблачно
    ВремяПогодаТемператураВлажностьДавлениеВетер, м/сВероятность осадков
    00:00Ясно и безоблачно+17°C39 %750 мм4.0 м/с2 %
    03:00Ясно и безоблачно+15°C50 %751 мм5.1 м/с2 %
    06:00Ясно и безоблачно+16°C63 %752 мм6.0 м/с2 %
    09:00Ясно и безоблачно+20°C52 %753 мм7.8 м/с2 %
    12:00Ясно и безоблачно+23°C39 %754 мм8.3 м/с5 %
    15:00Ясно и безоблачно+24°C32 %753 мм8.8 м/с8 %
    18:00Ясно и безоблачно+23°C30 %753 мм8.4 м/с2 %
    21:00Ясно и безоблачно+18°C21 %755 мм8.1 м/с2 %
  • 25мая
    Суббота
    +12°
    +23°
    Ясно и безоблачно
    ВремяПогодаТемператураВлажностьДавлениеВетер, м/сВероятность осадков
    00:00Ясно и безоблачно+16°C24 %755 мм7.9 м/с2 %
    03:00Ясно и безоблачно+13°C28 %756 мм7.6 м/с2 %
    06:00Ясно и безоблачно+13°C35 %756 мм7.4 м/с2 %
    09:00Ясно и безоблачно+16°C35 %757 мм8.3 м/с2 %
    12:00Ясно и безоблачно+20°C32 %756 мм9.1 м/с2 %
    15:00Ясно и безоблачно+23°C26 %755 мм8.9 м/с2 %
    18:00Облачно с прояснениями+21°C23 %755 мм7.9 м/с2 %
    21:00Пасмурно, сплошная облачность+18°C24 %755 мм7.4 м/с2 %
  • 26мая
    Воскресенье
    +11°
    +22°
    Практически безоблачно
    ВремяПогодаТемператураВлажностьДавлениеВетер, м/сВероятность осадков
    00:00Облачно с прояснениями+16°C40 %755 мм6.9 м/с2 %
    03:00Облачно с прояснениями+13°C41 %754 мм5.9 м/с2 %
    06:00Пасмурно, сплошная облачность+13°C58 %754 мм6.3 м/с7 %
    09:00Небольшая облачность+16°C49 %754 мм7.9 м/с8 %
    12:00Облачно с прояснениями+20°C31 %753 мм9.2 м/с6 %
    15:00Практически безоблачно+21°C30 %753 мм8.2 м/с4 %
    18:00Ясно и безоблачно+21°C26 %752 мм6.4 м/с3 %
    21:00Облачно с прояснениями+19°C28 %753 мм6.4 м/с6 %
Мы используем cookies
Соглашаюсь